createdAt,value
2023-01-13T00:00:54.175Z,81.2
2023-01-13T00:02:09.479Z,81.1
2023-01-13T00:03:25.773Z,81.1
2023-01-13T00:04:42.065Z,81
2023-01-13T00:05:58.361Z,81.1
2023-01-13T00:07:14.623Z,81.2
2023-01-13T00:08:30.943Z,81.2
2023-01-13T00:09:47.250Z,80.9
2023-01-13T00:11:03.537Z,80.8
2023-01-13T00:12:19.835Z,81
2023-01-13T00:13:36.122Z,81
2023-01-13T00:14:52.416Z,81.2
2023-01-13T00:16:08.719Z,81.1
2023-01-13T00:17:25.012Z,81
2023-01-13T00:18:40.286Z,81.2
2023-01-13T00:19:56.602Z,81.1
2023-01-13T00:21:12.898Z,81.1
2023-01-13T00:22:29.188Z,81
2023-01-13T00:23:45.489Z,81
2023-01-13T00:25:01.788Z,80.9
2023-01-13T00:26:18.048Z,80.9
2023-01-13T00:27:34.372Z,81
2023-01-13T00:28:50.645Z,81
2023-01-13T00:30:06.963Z,81
2023-01-13T00:31:23.229Z,81.1
2023-01-13T00:32:39.552Z,81.2
2023-01-13T00:33:55.813Z,81
2023-01-13T00:35:11.152Z,81.1
2023-01-13T00:36:27.434Z,80.9
2023-01-13T00:37:43.701Z,80.8
2023-01-13T00:38:59.998Z,80.9
2023-01-13T00:40:16.317Z,80.8
2023-01-13T00:41:32.579Z,80.5
2023-01-13T00:42:48.915Z,80.5
2023-01-13T00:44:05.206Z,80.5
2023-01-13T00:45:21.494Z,80.7
2023-01-13T00:46:37.791Z,80.6
2023-01-13T00:47:54.074Z,80.8
2023-01-13T00:49:10.378Z,80.7
2023-01-13T00:50:26.676Z,80.5
2023-01-13T00:51:41.978Z,80.3
2023-01-13T00:52:58.249Z,80.3
2023-01-13T00:54:14.568Z,80.3
2023-01-13T00:55:30.863Z,80.2
2023-01-13T00:56:47.154Z,80.3
2023-01-13T00:58:03.440Z,80.5
2023-01-13T00:59:19.734Z,80.4
2023-01-13T01:00:36.013Z,80.3
2023-01-13T01:01:52.327Z,80.3
2023-01-13T01:03:08.632Z,80.1
2023-01-13T01:04:24.884Z,79.8
2023-01-13T01:05:41.209Z,79.8
2023-01-13T01:06:57.502Z,79.8
2023-01-13T01:08:12.820Z,80
2023-01-13T01:09:29.072Z,80
2023-01-13T01:10:45.363Z,79.8
2023-01-13T01:12:01.687Z,79.8
2023-01-13T01:13:17.995Z,79.8
2023-01-13T01:14:34.272Z,79.8
2023-01-13T01:15:50.576Z,79.7
2023-01-13T01:17:06.859Z,79.7
2023-01-13T01:18:23.131Z,79.5
2023-01-13T01:19:39.456Z,79.4
2023-01-13T01:20:55.743Z,79.5
2023-01-13T01:22:12.003Z,79.5
2023-01-13T01:23:28.296Z,79.7
2023-01-13T01:24:43.608Z,79.5
2023-01-13T01:25:59.933Z,79.5
2023-01-13T01:27:16.230Z,79.7
2023-01-13T01:28:32.533Z,79.4
2023-01-13T01:29:48.813Z,79.5
2023-01-13T01:31:05.075Z,79.5
2023-01-13T01:32:21.398Z,79.4
2023-01-13T01:33:37.702Z,79.3
2023-01-13T01:34:53.985Z,79.4
2023-01-13T01:36:10.293Z,79.3
2023-01-13T01:37:26.542Z,79.4
2023-01-13T01:38:42.863Z,79.4
2023-01-13T01:39:59.160Z,79.4
2023-01-13T01:41:14.475Z,79.7
2023-01-13T01:42:30.744Z,79.3
2023-01-13T01:43:47.065Z,79.1
2023-01-13T01:45:03.323Z,78.6
2023-01-13T01:46:19.612Z,78.6
2023-01-13T01:47:35.942Z,78.6
2023-01-13T01:48:52.230Z,78.6
2023-01-13T01:50:08.541Z,78.7
2023-01-13T01:51:24.821Z,78.8
2023-01-13T01:52:41.087Z,78.7
2023-01-13T01:53:57.379Z,78.6
2023-01-13T01:55:13.706Z,78.8
2023-01-13T01:56:30.005Z,78.9
2023-01-13T01:57:45.299Z,78.8
2023-01-13T01:59:01.599Z,78.2
2023-01-13T02:00:17.873Z,78.2
2023-01-13T02:01:34.182Z,78.2
2023-01-13T02:02:50.454Z,78.2
2023-01-13T02:04:06.767Z,78.3
2023-01-13T02:05:23.030Z,78.3
2023-01-13T02:06:39.356Z,78.2
2023-01-13T02:07:55.619Z,78.2
2023-01-13T02:09:11.957Z,78.3
2023-01-13T02:10:28.206Z,78.5
2023-01-13T02:11:44.530Z,78.5
2023-01-13T02:13:00.833Z,78.2
2023-01-13T02:14:17.088Z,78.3
2023-01-13T02:15:32.436Z,78.2
2023-01-13T02:16:48.731Z,78.3
2023-01-13T02:18:05.015Z,78
2023-01-13T02:19:21.315Z,78.1
2023-01-13T02:20:37.599Z,78
2023-01-13T02:21:53.898Z,77.9
2023-01-13T02:23:10.165Z,77.9
2023-01-13T02:24:26.461Z,78
2023-01-13T02:25:42.771Z,78
2023-01-13T02:26:59.035Z,78.1
2023-01-13T02:28:15.370Z,77.9
2023-01-13T02:29:31.656Z,77.9
2023-01-13T02:30:47.948Z,78
2023-01-13T02:32:03.268Z,77.9
2023-01-13T02:33:19.552Z,77.9
2023-01-13T02:34:35.863Z,77.8
2023-01-13T02:35:52.113Z,78
2023-01-13T02:37:08.433Z,77.8
2023-01-13T02:38:24.703Z,78
2023-01-13T02:39:40.989Z,78
2023-01-13T02:40:57.315Z,78.1
2023-01-13T02:42:13.613Z,78.1
2023-01-13T02:43:29.873Z,78
2023-01-13T02:44:46.166Z,77.7
2023-01-13T02:46:02.484Z,77.8
2023-01-13T02:47:18.780Z,77.8
2023-01-13T02:48:34.097Z,77.8
2023-01-13T02:49:50.362Z,77.8
2023-01-13T02:51:06.674Z,77.9
2023-01-13T02:52:22.987Z,78
2023-01-13T02:53:39.235Z,78.1
2023-01-13T02:54:54.576Z,78.3
2023-01-13T02:56:10.888Z,78.2
2023-01-13T02:57:27.163Z,77.9
2023-01-13T02:58:43.474Z,77.9
2023-01-13T02:59:59.759Z,78.2
2023-01-13T03:01:16.023Z,78.1
2023-01-13T03:02:32.354Z,78.3
2023-01-13T03:03:48.637Z,78.4
2023-01-13T03:05:04.938Z,78.4
2023-01-13T03:06:21.220Z,78.4
2023-01-13T03:07:37.530Z,78.4
2023-01-13T03:08:53.811Z,78.4
2023-01-13T03:10:10.102Z,78.3
2023-01-13T03:11:25.393Z,78.2
2023-01-13T03:12:41.720Z,78
2023-01-13T03:13:58.001Z,77.9
2023-01-13T03:15:14.260Z,78
2023-01-13T03:16:30.587Z,78
2023-01-13T03:17:46.879Z,78
2023-01-13T03:19:03.182Z,77.8
2023-01-13T03:20:19.466Z,77.9
2023-01-13T03:21:35.763Z,78.1
2023-01-13T03:22:52.028Z,78.1
2023-01-13T03:24:08.349Z,78.1
2023-01-13T03:25:24.607Z,77.7
2023-01-13T03:26:40.944Z,77.6
2023-01-13T03:27:56.214Z,77.8
2023-01-13T03:29:12.542Z,77.7
2023-01-13T03:30:28.834Z,78
2023-01-13T03:31:45.090Z,77.9
2023-01-13T03:33:01.420Z,78.1
2023-01-13T03:34:17.708Z,78
2023-01-13T03:35:33.985Z,78.2
2023-01-13T03:36:50.295Z,78.2
2023-01-13T03:38:06.568Z,78.5
2023-01-13T03:39:22.899Z,78.4
2023-01-13T03:40:39.189Z,78.6
2023-01-13T03:41:55.439Z,78.5
2023-01-13T03:43:11.763Z,78.7
2023-01-13T03:44:27.046Z,78.8
2023-01-13T03:45:43.382Z,79
2023-01-13T03:46:59.671Z,79.1
2023-01-13T03:48:15.957Z,79.1
2023-01-13T03:49:32.247Z,79.3
2023-01-13T03:50:48.545Z,79.3
2023-01-13T03:52:04.804Z,79.3
2023-01-13T03:53:21.136Z,79.2
2023-01-13T03:54:37.425Z,79.3
2023-01-13T03:55:53.683Z,79.4
2023-01-13T03:57:10.011Z,79.6
2023-01-13T03:58:26.310Z,79.5
2023-01-13T03:59:42.594Z,79.6
2023-01-13T04:00:57.924Z,79.7
2023-01-13T04:02:14.211Z,79.8
2023-01-13T04:03:30.503Z,79.8
2023-01-13T04:04:46.786Z,79.9
2023-01-13T04:06:03.048Z,79.9
2023-01-13T04:07:19.345Z,79.9
2023-01-13T04:08:35.644Z,79.9
2023-01-13T04:09:51.961Z,79.9
2023-01-13T04:11:08.235Z,79.9
2023-01-13T04:12:24.545Z,79.9
2023-01-13T04:13:40.837Z,80
2023-01-13T04:14:57.136Z,80
2023-01-13T04:16:13.442Z,80.1
2023-01-13T04:17:28.746Z,80
2023-01-13T04:18:45.039Z,80.2
2023-01-13T04:20:01.323Z,80.1
2023-01-13T04:21:17.619Z,80
2023-01-13T04:22:33.917Z,79.8
2023-01-13T04:23:50.215Z,79.9
2023-01-13T04:25:06.496Z,80.1
2023-01-13T04:26:22.810Z,80
2023-01-13T04:27:39.096Z,80.2
2023-01-13T04:28:55.381Z,80.3
2023-01-13T04:30:11.685Z,80.5
2023-01-13T04:31:27.976Z,80.5
2023-01-13T04:32:44.229Z,80.6
2023-01-13T04:33:59.586Z,80.7
2023-01-13T04:35:15.864Z,80.7
2023-01-13T04:36:32.155Z,80.9
2023-01-13T04:37:48.447Z,80.7
2023-01-13T04:39:04.740Z,80.9
2023-01-13T04:40:21.033Z,81.1
2023-01-13T04:41:37.326Z,81
2023-01-13T04:42:53.623Z,81.1
2023-01-13T04:44:09.924Z,81.3
2023-01-13T04:45:26.174Z,81.2
2023-01-13T04:46:42.504Z,81.3
2023-01-13T04:47:58.795Z,81.3
2023-01-13T04:49:15.099Z,81.4
2023-01-13T04:50:30.401Z,81.4
2023-01-13T04:51:46.703Z,81.3
2023-01-13T04:53:02.985Z,81.2
2023-01-13T04:54:19.288Z,81.2
2023-01-13T04:55:35.575Z,81.3
2023-01-13T04:56:51.866Z,81.2
2023-01-13T04:58:08.156Z,81.2
2023-01-13T04:59:24.468Z,81.3
2023-01-13T05:00:40.743Z,81.2
2023-01-13T05:01:57.044Z,81.3
2023-01-13T05:03:13.302Z,81.3
2023-01-13T05:04:29.634Z,81.3
2023-01-13T05:05:45.927Z,81.3
2023-01-13T05:07:01.229Z,81.2
2023-01-13T05:08:17.503Z,81.2
2023-01-13T05:09:33.815Z,81.2
2023-01-13T05:10:50.079Z,81.2
2023-01-13T05:12:06.407Z,81.3
2023-01-13T05:13:22.701Z,81.3
2023-01-13T05:14:38.957Z,81.5
2023-01-13T05:15:55.293Z,81.5
2023-01-13T05:17:11.592Z,81.6
2023-01-13T05:18:27.874Z,81.5
2023-01-13T05:19:44.176Z,81.3
2023-01-13T05:21:00.464Z,81.3
2023-01-13T05:22:16.765Z,81.2
2023-01-13T05:23:32.058Z,81.1
2023-01-13T05:24:48.368Z,81.1
2023-01-13T05:26:04.621Z,81
2023-01-13T05:27:20.955Z,81.2
2023-01-13T05:28:37.243Z,81
2023-01-13T05:29:53.526Z,80.9
2023-01-13T05:31:09.825Z,80.9
2023-01-13T05:32:26.116Z,81
2023-01-13T05:33:42.412Z,80.8
2023-01-13T05:34:58.712Z,80.7
2023-01-13T05:36:15.004Z,80.5
2023-01-13T05:37:31.290Z,80.6
2023-01-13T05:38:47.582Z,80.6
2023-01-13T05:40:02.892Z,80.5
2023-01-13T05:41:19.199Z,80.7
2023-01-13T05:42:35.483Z,80.6
2023-01-13T05:43:51.783Z,80.6
2023-01-13T05:45:08.070Z,80.6
2023-01-13T05:46:24.363Z,80.8
2023-01-13T05:47:40.656Z,80.7
2023-01-13T05:48:56.916Z,80.6
2023-01-13T05:50:13.247Z,80.6
2023-01-13T05:51:29.537Z,80.6
2023-01-13T05:52:45.839Z,80.7
2023-01-13T05:54:02.129Z,80.6
2023-01-13T05:55:18.419Z,80.5
2023-01-13T05:56:33.734Z,80.6
2023-01-13T05:57:49.995Z,80.5
2023-01-13T05:59:06.314Z,80.8
2023-01-13T06:00:22.613Z,80.7
2023-01-13T06:01:38.866Z,80.9
2023-01-13T06:02:55.202Z,80.9
2023-01-13T06:04:11.488Z,80.9
2023-01-13T06:05:27.783Z,80.8
2023-01-13T06:06:44.071Z,80.7
2023-01-13T06:08:00.367Z,80.9
2023-01-13T06:09:16.654Z,80.8
2023-01-13T06:10:32.956Z,80.8
2023-01-13T06:11:49.254Z,80.8
2023-01-13T06:13:04.558Z,80.9
2023-01-13T06:14:20.846Z,80.9
2023-01-13T06:15:37.145Z,80.9
2023-01-13T06:16:53.402Z,81
2023-01-13T06:18:09.728Z,81.1
2023-01-13T06:19:25.990Z,80.9
2023-01-13T06:20:42.315Z,80.8
2023-01-13T06:21:58.608Z,80.9
2023-01-13T06:23:14.875Z,81
2023-01-13T06:24:31.207Z,80.8
2023-01-13T06:25:47.485Z,80.8
2023-01-13T06:27:03.778Z,81
2023-01-13T06:28:20.073Z,81.4
2023-01-13T06:29:35.392Z,81.8
2023-01-13T06:30:51.678Z,81.9
2023-01-13T06:32:07.940Z,82
2023-01-13T06:33:24.276Z,82
2023-01-13T06:34:40.564Z,82.2
2023-01-13T06:35:56.819Z,82
2023-01-13T06:37:13.114Z,82.1
2023-01-13T06:38:29.458Z,82.2
2023-01-13T06:39:45.646Z,82.3
2023-01-13T06:41:01.904Z,82.6
2023-01-13T06:42:18.137Z,82.6
2023-01-13T06:43:34.428Z,82.7
2023-01-13T06:44:50.658Z,82.4
2023-01-13T06:46:05.911Z,82.7
2023-01-13T06:47:22.161Z,82.1
2023-01-13T06:48:38.395Z,82.1
2023-01-13T06:49:54.626Z,82.1
2023-01-13T06:51:10.875Z,82.1
2023-01-13T06:52:27.111Z,82.2
2023-01-13T06:53:43.355Z,82.2
2023-01-13T06:54:59.587Z,82.4
2023-01-13T06:56:15.825Z,82.4
2023-01-13T06:57:32.060Z,82.3
2023-01-13T06:58:48.310Z,82.2
2023-01-13T07:00:04.542Z,81.9
2023-01-13T07:01:20.788Z,81.9
2023-01-13T07:02:36.051Z,81.8
2023-01-13T07:03:52.283Z,81.7
2023-01-13T07:05:08.487Z,81.7
2023-01-13T07:06:24.720Z,81.6
2023-01-13T07:07:41.011Z,81.8
2023-01-13T07:08:57.242Z,81.8
2023-01-13T07:10:12.497Z,81.6
2023-01-13T07:11:28.736Z,81.6
2023-01-13T07:12:44.975Z,81.7
2023-01-13T07:14:01.184Z,81.5
2023-01-13T07:15:17.452Z,81.2
2023-01-13T07:16:33.657Z,80.8
2023-01-13T07:17:49.904Z,81.5
2023-01-13T07:19:06.170Z,83.5
2023-01-13T07:20:22.417Z,88.4
2023-01-13T07:21:38.623Z,91.8
2023-01-13T07:22:54.894Z,93.4
2023-01-13T07:24:11.094Z,94.5
2023-01-13T07:25:27.340Z,95.7
2023-01-13T07:26:42.634Z,96.9
2023-01-13T07:27:58.840Z,97.6
2023-01-13T07:29:15.071Z,97.3
2023-01-13T07:30:31.315Z,97.5
2023-01-13T07:31:47.597Z,97.7
2023-01-13T07:33:03.798Z,97.6
2023-01-13T07:34:20.035Z,97.8
2023-01-13T07:35:36.269Z,98.3
2023-01-13T07:36:52.541Z,98.7
2023-01-13T07:38:08.784Z,98.8
2023-01-13T07:39:25.024Z,99
2023-01-13T07:40:41.269Z,98.8
2023-01-13T07:41:57.499Z,99
2023-01-13T07:43:12.731Z,99.1
2023-01-13T07:44:29.003Z,99.2
2023-01-13T07:45:45.200Z,99.4
2023-01-13T07:47:01.446Z,99.4
2023-01-13T07:48:17.692Z,98.9
2023-01-13T07:49:33.916Z,98.8
2023-01-13T07:50:50.163Z,98.4
2023-01-13T07:52:06.434Z,98.4
2023-01-13T07:53:22.687Z,98.1
2023-01-13T07:54:38.916Z,97.9
2023-01-13T07:55:55.115Z,96.9
2023-01-13T07:57:11.405Z,96.1
2023-01-13T07:58:27.648Z,95.7
2023-01-13T07:59:42.885Z,94.5
2023-01-13T08:00:59.138Z,94.7
2023-01-13T08:02:15.339Z,93.8
2023-01-13T08:03:31.601Z,92.6
2023-01-13T08:04:47.841Z,93
2023-01-13T08:06:04.066Z,93
2023-01-13T08:07:20.335Z,93.4
2023-01-13T08:08:36.526Z,93
2023-01-13T08:09:52.805Z,92.2
2023-01-13T08:11:09.043Z,92.5
2023-01-13T08:12:25.282Z,91.3
2023-01-13T08:13:41.518Z,90.3
2023-01-13T08:14:57.771Z,91.2
2023-01-13T08:16:13.020Z,90.3
2023-01-13T08:17:29.260Z,90.4
2023-01-13T08:18:45.471Z,88.4
2023-01-13T08:20:01.736Z,87.9
2023-01-13T08:21:17.980Z,89.3
2023-01-13T08:22:34.224Z,89.3
2023-01-13T08:23:50.469Z,88.5
2023-01-13T08:25:06.667Z,88.9
2023-01-13T08:26:22.936Z,89.3
2023-01-13T08:27:39.136Z,88.8
2023-01-13T08:28:55.414Z,89.5
2023-01-13T08:30:11.614Z,89.7
2023-01-13T08:31:27.886Z,90
2023-01-13T08:32:43.111Z,88.9
2023-01-13T08:33:59.384Z,90.2
2023-01-13T08:35:15.628Z,90
2023-01-13T08:36:31.872Z,90.3
2023-01-13T08:37:48.112Z,90.6
2023-01-13T08:39:04.306Z,90.7
2023-01-13T08:40:20.550Z,89.9
2023-01-13T08:41:36.785Z,90.1
2023-01-13T08:42:53.064Z,90.2
2023-01-13T08:44:09.301Z,90.5
2023-01-13T08:45:25.556Z,90.8
2023-01-13T08:46:41.743Z,90.1
2023-01-13T08:47:58.019Z,89.9
2023-01-13T08:49:13.249Z,89.8
2023-01-13T08:50:29.523Z,90
2023-01-13T08:51:45.723Z,89.2
2023-01-13T08:53:02.001Z,89.7
2023-01-13T08:54:18.236Z,88.9
2023-01-13T08:55:34.472Z,89.3
2023-01-13T08:56:50.677Z,88.2
2023-01-13T08:58:06.954Z,87.9
2023-01-13T08:59:23.197Z,87.7
2023-01-13T09:00:39.428Z,87.9
2023-01-13T09:01:55.677Z,87.7
2023-01-13T09:03:11.910Z,88
2023-01-13T09:04:28.116Z,87.7
2023-01-13T09:05:43.415Z,87.2
2023-01-13T09:06:59.611Z,86.3
2023-01-13T09:08:15.848Z,85.8
2023-01-13T09:09:32.141Z,85.4
2023-01-13T09:10:48.364Z,86.1
2023-01-13T09:12:04.579Z,85.8
2023-01-13T09:13:20.848Z,84.8
2023-01-13T09:14:37.087Z,85.6
2023-01-13T09:15:53.327Z,86.1
2023-01-13T09:17:09.557Z,85.6
2023-01-13T09:18:25.808Z,86.1
2023-01-13T09:19:42.013Z,86.3
2023-01-13T09:20:58.251Z,86.5
2023-01-13T09:22:13.497Z,86.8
2023-01-13T09:23:29.771Z,87
2023-01-13T09:24:46.016Z,86.8
2023-01-13T09:26:02.250Z,87.5
2023-01-13T09:27:18.505Z,87.5
2023-01-13T09:28:34.729Z,87.6
2023-01-13T09:29:50.970Z,87
2023-01-13T09:31:07.215Z,87
2023-01-13T09:32:23.449Z,87.7
2023-01-13T09:33:39.687Z,87.5
2023-01-13T09:34:55.938Z,87.5
2023-01-13T09:36:12.143Z,87.3
2023-01-13T09:37:28.414Z,87.6
2023-01-13T09:38:43.673Z,87.7
2023-01-13T09:39:59.906Z,87.3
2023-01-13T09:41:16.104Z,87
2023-01-13T09:42:32.382Z,87.2
2023-01-13T09:43:48.591Z,87.2
2023-01-13T09:45:04.857Z,87.9
2023-01-13T09:46:21.063Z,87.5
2023-01-13T09:47:37.315Z,88.2
2023-01-13T09:48:53.544Z,88.9
2023-01-13T09:50:09.826Z,88.4
2023-01-13T09:51:26.064Z,88.1
2023-01-13T09:52:42.315Z,88.5
2023-01-13T09:53:58.505Z,89.2
2023-01-13T09:55:13.761Z,88.6
2023-01-13T09:56:29.997Z,89
2023-01-13T09:57:46.279Z,89
2023-01-13T09:59:02.482Z,88.6
2023-01-13T10:00:18.724Z,89.9
2023-01-13T10:01:34.994Z,88.5
2023-01-13T10:02:51.244Z,89.2
2023-01-13T10:04:07.467Z,88.8
2023-01-13T10:05:23.683Z,89.5
2023-01-13T10:06:39.952Z,89.1
2023-01-13T10:07:56.149Z,88.9
2023-01-13T10:09:12.431Z,89.1
2023-01-13T10:10:28.638Z,89
2023-01-13T10:11:43.925Z,89.7
2023-01-13T10:13:00.130Z,89.6
2023-01-13T10:14:16.401Z,88.8
2023-01-13T10:15:32.640Z,88.9
2023-01-13T10:16:48.850Z,88.9
2023-01-13T10:18:05.087Z,88.1
2023-01-13T10:19:21.322Z,88.5
2023-01-13T10:20:37.613Z,88.3
2023-01-13T10:21:53.842Z,87.6
2023-01-13T10:23:10.078Z,87.8
2023-01-13T10:24:26.281Z,88
2023-01-13T10:25:42.527Z,88.2
2023-01-13T10:26:58.814Z,88.3
2023-01-13T10:28:14.062Z,88.3
2023-01-13T10:29:30.311Z,88.1
2023-01-13T10:30:46.498Z,88
2023-01-13T10:32:02.772Z,88.2
2023-01-13T10:33:19.011Z,88.5
2023-01-13T10:34:35.257Z,88.3
2023-01-13T10:35:51.492Z,87.9
2023-01-13T10:37:07.699Z,87.9
2023-01-13T10:38:23.971Z,87.8
2023-01-13T10:39:40.224Z,87.5
2023-01-13T10:40:56.455Z,87.5
2023-01-13T10:42:12.691Z,87.2
2023-01-13T10:43:28.934Z,86.7
2023-01-13T10:44:44.191Z,86.6
2023-01-13T10:46:00.401Z,86.2
2023-01-13T10:47:16.639Z,85.9
2023-01-13T10:48:32.904Z,85.1
2023-01-13T10:49:49.142Z,83.8
2023-01-13T10:51:05.389Z,82.5
2023-01-13T10:52:21.626Z,82.7
2023-01-13T10:53:37.871Z,83.2
2023-01-13T10:54:54.114Z,83.1
2023-01-13T10:56:10.336Z,82.5
2023-01-13T10:57:26.577Z,82.8
2023-01-13T10:58:42.783Z,82.8
2023-01-13T10:59:59.057Z,82.8
2023-01-13T11:01:14.283Z,82.9
2023-01-13T11:02:30.561Z,82.7
2023-01-13T11:03:46.792Z,82.4
2023-01-13T11:05:03.041Z,82.2
2023-01-13T11:06:19.288Z,82.3
2023-01-13T11:07:35.514Z,82.2
2023-01-13T11:08:51.754Z,82.4
2023-01-13T11:10:07.993Z,82.7
2023-01-13T11:11:24.190Z,82.6
2023-01-13T11:12:40.469Z,82.4
2023-01-13T11:13:56.677Z,82.6
2023-01-13T11:15:12.908Z,82.6
2023-01-13T11:16:29.153Z,82.3
2023-01-13T11:17:44.453Z,82.2
2023-01-13T11:19:00.642Z,82.1
2023-01-13T11:20:16.933Z,81.3
2023-01-13T11:21:33.138Z,81.7
2023-01-13T11:22:49.403Z,80.1
2023-01-13T11:24:05.643Z,80.1
2023-01-13T11:25:20.905Z,79.7
2023-01-13T11:26:37.148Z,78.6
2023-01-13T11:27:53.386Z,79
2023-01-13T11:29:09.591Z,79.1
2023-01-13T11:30:25.867Z,79.5
2023-01-13T11:31:42.062Z,78.9
2023-01-13T11:32:58.341Z,78.1
2023-01-13T11:34:14.578Z,77.6
2023-01-13T11:35:30.795Z,78
2023-01-13T11:36:47.063Z,78.4
2023-01-13T11:38:03.312Z,76.8
2023-01-13T11:39:19.547Z,77.1
2023-01-13T11:40:35.778Z,77.2
2023-01-13T11:41:51.035Z,77
2023-01-13T11:43:07.274Z,76
2023-01-13T11:44:23.523Z,76.8
2023-01-13T11:45:39.722Z,75.8
2023-01-13T11:46:56.005Z,75.6
2023-01-13T11:48:12.242Z,74.8
2023-01-13T11:49:28.437Z,75.1
2023-01-13T11:50:44.719Z,75.3
2023-01-13T11:52:00.908Z,75.1
2023-01-13T11:53:17.204Z,74.6
2023-01-13T11:54:33.390Z,74.9
2023-01-13T11:55:49.672Z,74.5
2023-01-13T11:57:05.920Z,73.7
2023-01-13T11:58:21.165Z,74
2023-01-13T11:59:37.407Z,73.4
2023-01-13T12:00:53.640Z,73.1
2023-01-13T12:02:09.880Z,72.6
2023-01-13T12:03:26.118Z,72.4
2023-01-13T12:04:42.364Z,73
2023-01-13T12:05:58.599Z,73.7
2023-01-13T12:07:14.851Z,74.5
2023-01-13T12:08:31.077Z,73.7
2023-01-13T12:09:47.335Z,73.6
2023-01-13T12:11:03.560Z,72.2
2023-01-13T12:12:19.803Z,72.2
2023-01-13T12:13:35.998Z,72.7
2023-01-13T12:14:51.295Z,72.5
2023-01-13T12:16:07.547Z,72.2
2023-01-13T12:17:23.738Z,72.1
2023-01-13T12:18:40.022Z,71.5
2023-01-13T12:19:56.215Z,71.5
2023-01-13T12:21:12.495Z,72.1
2023-01-13T12:22:28.732Z,72.2
2023-01-13T12:23:44.977Z,72.2
2023-01-13T12:25:01.214Z,72.2
2023-01-13T12:26:17.457Z,71.5
2023-01-13T12:27:33.659Z,70.8
2023-01-13T12:28:49.941Z,70.5
2023-01-13T12:30:06.173Z,70.5
2023-01-13T12:31:21.433Z,70.8
2023-01-13T12:32:37.673Z,70.4
2023-01-13T12:33:53.913Z,70.7
2023-01-13T12:35:10.115Z,71
2023-01-13T12:36:26.392Z,70.8
2023-01-13T12:37:42.628Z,70.5
2023-01-13T12:38:58.876Z,71.2
2023-01-13T12:40:15.101Z,70.3
2023-01-13T12:41:31.356Z,69.9
2023-01-13T12:42:47.578Z,69.9
2023-01-13T12:44:03.823Z,70.3
2023-01-13T12:45:20.070Z,70.2
2023-01-13T12:46:36.301Z,69.9
2023-01-13T12:47:51.565Z,69.1
2023-01-13T12:49:07.809Z,68.6
2023-01-13T12:50:24.050Z,68.8
2023-01-13T12:51:40.272Z,69
2023-01-13T12:52:56.514Z,69.3
2023-01-13T12:54:12.764Z,68.8
2023-01-13T12:55:28.993Z,68.5
2023-01-13T12:56:45.208Z,67.2
2023-01-13T12:58:01.469Z,67.3
2023-01-13T12:59:17.729Z,66.7
2023-01-13T13:00:33.963Z,66.3
2023-01-13T13:01:50.150Z,66
2023-01-13T13:03:06.430Z,66.4
2023-01-13T13:04:21.692Z,66.4
2023-01-13T13:05:37.892Z,66.5
2023-01-13T13:06:54.165Z,66.7
2023-01-13T13:08:10.377Z,66.9
2023-01-13T13:09:26.642Z,66.5
2023-01-13T13:10:42.901Z,66.9
2023-01-13T13:11:59.086Z,67.3
2023-01-13T13:13:15.371Z,67.5
2023-01-13T13:14:31.573Z,67.4
2023-01-13T13:15:47.806Z,67.1
2023-01-13T13:17:04.084Z,66.9
2023-01-13T13:18:20.327Z,66.9
2023-01-13T13:19:36.537Z,67.1
2023-01-13T13:20:51.824Z,67.4
2023-01-13T13:22:08.030Z,66.6
2023-01-13T13:23:24.293Z,67.6
2023-01-13T13:24:40.499Z,68.1
2023-01-13T13:25:56.744Z,68.1
2023-01-13T13:27:13.020Z,68.5
2023-01-13T13:28:29.266Z,68.3
2023-01-13T13:29:45.493Z,66.9
2023-01-13T13:31:01.698Z,67.1
2023-01-13T13:32:17.989Z,66.7
2023-01-13T13:33:34.175Z,66.3
2023-01-13T13:34:50.415Z,66.4
2023-01-13T13:36:06.698Z,66.5
2023-01-13T13:37:21.906Z,64.5
2023-01-13T13:38:38.150Z,64.3
2023-01-13T13:39:54.385Z,64.3
2023-01-13T13:41:10.678Z,64.6
2023-01-13T13:42:26.923Z,64.5
2023-01-13T13:43:43.142Z,65
2023-01-13T13:44:59.391Z,64.8
2023-01-13T13:46:15.640Z,65.4
2023-01-13T13:47:31.842Z,65.6
2023-01-13T13:48:48.085Z,66.1
2023-01-13T13:50:04.304Z,66.5
2023-01-13T13:51:20.569Z,67.3
2023-01-13T13:52:36.807Z,67.4
2023-01-13T13:53:53.038Z,68
2023-01-13T13:55:08.291Z,67.8
2023-01-13T13:56:24.514Z,68
2023-01-13T13:57:40.769Z,68.3
2023-01-13T13:58:57.005Z,68.5
2023-01-13T14:00:13.249Z,68.3
2023-01-13T14:01:29.486Z,68.6
2023-01-13T14:02:45.728Z,68.9
2023-01-13T14:04:01.974Z,69.1
2023-01-13T14:05:18.216Z,69
2023-01-13T14:06:34.460Z,68.4
2023-01-13T14:07:50.688Z,68.6
2023-01-13T14:09:06.921Z,68
2023-01-13T14:10:23.162Z,68.4
2023-01-13T14:11:38.419Z,68.2
2023-01-13T14:12:54.660Z,67.4
2023-01-13T14:14:10.889Z,67
2023-01-13T14:15:27.150Z,66.8
2023-01-13T14:16:43.369Z,65
2023-01-13T14:17:59.614Z,65.1
2023-01-13T14:19:15.851Z,65.3
2023-01-13T14:20:32.096Z,65.2
2023-01-13T14:21:48.336Z,65.1
2023-01-13T14:23:04.592Z,65
2023-01-13T14:24:20.829Z,65.4
2023-01-13T14:25:37.059Z,65.6
2023-01-13T14:26:53.303Z,65.9
2023-01-13T14:28:08.561Z,66.3
2023-01-13T14:29:24.796Z,66.4
2023-01-13T14:30:41.029Z,67
2023-01-13T14:31:57.273Z,66.7
2023-01-13T14:33:13.516Z,66.6
2023-01-13T14:34:29.759Z,66.7
2023-01-13T14:35:46.007Z,66.7
2023-01-13T14:37:02.230Z,66.7
2023-01-13T14:38:18.484Z,66.6
2023-01-13T14:39:34.713Z,67
2023-01-13T14:40:50.954Z,67.1
2023-01-13T14:42:07.184Z,67
2023-01-13T14:43:23.438Z,66.8
2023-01-13T14:44:38.669Z,66.9
2023-01-13T14:45:54.935Z,67
2023-01-13T14:47:11.178Z,67.3
2023-01-13T14:48:27.402Z,67.3
2023-01-13T14:49:43.643Z,67.1
2023-01-13T14:50:59.881Z,67.1
2023-01-13T14:52:16.108Z,67.8
2023-01-13T14:53:32.364Z,67.6
2023-01-13T14:54:48.614Z,68
2023-01-13T14:56:04.837Z,68.1
2023-01-13T14:57:21.073Z,68.3
2023-01-13T14:58:37.336Z,68.4
2023-01-13T14:59:53.558Z,68.2
2023-01-13T15:01:08.817Z,68.3
2023-01-13T15:02:25.048Z,68.6
2023-01-13T15:03:41.299Z,69.1
2023-01-13T15:04:57.532Z,69.1
2023-01-13T15:06:13.773Z,69.3
2023-01-13T15:07:29.999Z,69.5
2023-01-13T15:08:46.266Z,69.7
2023-01-13T15:10:02.503Z,70
2023-01-13T15:11:18.729Z,69.8
2023-01-13T15:12:34.988Z,70
2023-01-13T15:13:51.222Z,69.8
2023-01-13T15:15:07.460Z,70
2023-01-13T15:16:23.696Z,70.1
2023-01-13T15:17:38.934Z,70.2
2023-01-13T15:18:55.178Z,70.3
2023-01-13T15:20:11.427Z,70.2
2023-01-13T15:21:27.671Z,70.2
2023-01-13T15:22:43.916Z,70.4
2023-01-13T15:24:00.152Z,70.6
2023-01-13T15:25:16.390Z,70.9
2023-01-13T15:26:32.634Z,71.1
2023-01-13T15:27:48.873Z,71.1
2023-01-13T15:29:05.114Z,71.5
2023-01-13T15:30:21.345Z,71.5
2023-01-13T15:31:37.587Z,71.8
2023-01-13T15:32:53.838Z,72.1
2023-01-13T15:34:10.054Z,72.1
2023-01-13T15:35:25.322Z,72.2
2023-01-13T15:36:41.556Z,72.3
2023-01-13T15:37:57.810Z,72.2
2023-01-13T15:39:14.042Z,72.4
2023-01-13T15:40:29.292Z,72.5
2023-01-13T15:41:45.537Z,72.7
2023-01-13T15:43:01.786Z,72.6
2023-01-13T15:44:18.034Z,72.8
2023-01-13T15:45:34.256Z,73
2023-01-13T15:46:50.504Z,72.8
2023-01-13T15:48:06.735Z,73.2
2023-01-13T15:49:22.980Z,73
2023-01-13T15:50:39.231Z,73.2
2023-01-13T15:51:55.452Z,73.1
2023-01-13T15:53:11.692Z,73.1
2023-01-13T15:54:27.000Z,73.2
2023-01-13T15:55:44.159Z,73.5
2023-01-13T15:56:59.441Z,73.4
2023-01-13T15:58:15.679Z,73.5
2023-01-13T15:59:31.924Z,73.7
2023-01-13T16:00:48.149Z,73.5
2023-01-13T16:02:04.407Z,73.7
2023-01-13T16:03:20.624Z,73.9
2023-01-13T16:04:36.867Z,73.8
2023-01-13T16:05:53.171Z,73.7
2023-01-13T16:07:09.454Z,73.6
2023-01-13T16:08:25.745Z,73.5
2023-01-13T16:09:42.034Z,73.5
2023-01-13T16:10:58.343Z,73.7
2023-01-13T16:12:14.618Z,73.5
2023-01-13T16:13:29.948Z,73.5
2023-01-13T16:14:46.253Z,73.4
2023-01-13T16:16:02.529Z,73.3
2023-01-13T16:17:18.823Z,73.3
2023-01-13T16:18:35.127Z,73.2
2023-01-13T16:19:51.399Z,73.1
2023-01-13T16:21:07.703Z,72.9
2023-01-13T16:22:23.981Z,73.1
2023-01-13T16:23:40.280Z,72.7
2023-01-13T16:24:56.587Z,73
2023-01-13T16:26:12.861Z,72.8
2023-01-13T16:27:29.156Z,72.7
2023-01-13T16:28:45.463Z,72.6
2023-01-13T16:30:00.762Z,72.2
2023-01-13T16:31:17.052Z,72
2023-01-13T16:32:33.360Z,71.6
2023-01-13T16:33:49.647Z,71.2
2023-01-13T16:35:05.966Z,71
2023-01-13T16:36:22.247Z,71
2023-01-13T16:37:38.532Z,70.8
2023-01-13T16:38:54.838Z,70.5
2023-01-13T16:40:11.118Z,70.6
2023-01-13T16:41:27.425Z,70.5
2023-01-13T16:42:43.716Z,70.3
2023-01-13T16:43:59.990Z,70.2
2023-01-13T16:45:16.299Z,70.2
2023-01-13T16:46:31.627Z,70
2023-01-13T16:47:47.903Z,69.9
2023-01-13T16:49:04.201Z,69.7
2023-01-13T16:50:20.492Z,69.7
2023-01-13T16:51:36.787Z,69.8
2023-01-13T16:52:53.082Z,69.6
2023-01-13T16:54:09.372Z,69.6
2023-01-13T16:55:25.678Z,69.4
2023-01-13T16:56:41.953Z,69.4
2023-01-13T16:57:58.266Z,69.3
2023-01-13T16:59:14.553Z,68.8
2023-01-13T17:00:30.839Z,69
2023-01-13T17:01:47.135Z,68.5